Terminal Aerodrome Forecast
Issued by NWS Raleigh/Durham, NC

Home | Current Version | Previous Version | Text Only | Print | Product List | Glossary On
Versions: 1 2 3 4 5 6 7 8 9 10 11 12 13 14 15 16 17 18 19 20 21 22 23 24 25 26 27 28 29 30 31 32
000
FTUS42 KRAH 311752 AAA
TAFFAY
TAF AMD
KFAY 311752Z 3118/0118 06006KT P6SM SCT100 BKN190
      TEMPO 3120/3124 -SHRA BKN045
     FM010900 VRB05KT 5SM -SHRA BR OVC008
     FM011400 VRB05KT 5SM TSRA BR OVC025CB=

USA.gov is the U.S. government's official web portal to all federal, state and local government web resources and services.